Time;durP1;ratioP1;P1;durP2;ratioP2;P2;SDS_P1;SDS_P2;PMS_P1;PMS_P2;Temp;Humidity;BMP_temperature;BMP_pressure;BME280_temperature;BME280_humidity;BME280_pressure;Samples;Min_cycle;Max_cycle;Signal;HPM_P1;HPM_P2
2022/07/23 00:00:38;;;;;;;9.48;6.10;;;;;;;25.58;42.27;94921.31;4213961;28;20060;-57
2022/07/23 00:02:40;;;;;;;8.57;5.88;;;;;;;25.41;42.65;94918.66;4228172;28;20061;-57
2022/07/23 00:04:42;;;;;;;10.52;6.18;;;;;;;25.34;42.77;94919.63;4218429;28;20056;-56
2022/07/23 00:06:44;;;;;;;14.15;6.38;;;;;;;25.30;42.81;94923.84;4222528;28;20112;-56
2022/07/23 00:08:45;;;;;;;16.25;6.55;;;;;;;25.28;43.04;94917.13;4217065;28;20374;-56
2022/07/23 00:10:47;;;;;;;11.15;6.65;;;;;;;25.23;43.08;94925.06;4213592;28;20183;-57
2022/07/23 00:12:49;;;;;;;8.52;5.75;;;;;;;25.20;43.20;94928.25;4219819;28;20139;-58
2022/07/23 00:14:52;;;;;;;;;;;;;;;25.00;43.46;94921.50;4227888;28;20081;-57
2022/07/23 00:16:54;;;;;;;10.07;6.78;;;;;;;24.75;44.20;94924.56;4220757;28;19987;-56
2022/07/23 00:18:56;;;;;;;10.48;6.65;;;;;;;24.47;44.72;94923.50;4227239;28;20047;-56
2022/07/23 00:20:58;;;;;;;13.23;6.97;;;;;;;24.37;44.90;94934.03;4216165;28;20231;-55
2022/07/23 00:23:00;;;;;;;16.02;6.68;;;;;;;24.31;45.20;94925.09;4218622;28;20044;-56
2022/07/23 00:25:02;;;;;;;11.75;6.30;;;;;;;24.29;44.87;94921.84;4219344;28;20059;-55
2022/07/23 00:27:23;;;;;;;11.15;6.03;;;;;;;24.20;45.00;94925.13;4225480;28;20134;-56
2022/07/23 00:29:25;;;;;;;11.15;6.28;;;;;;;24.11;45.45;94935.41;4224268;28;20051;-56
2022/07/23 00:31:27;;;;;;;8.52;6.07;;;;;;;24.17;45.52;94928.28;4217922;28;20040;-56
2022/07/23 00:33:29;;;;;;;8.57;6.05;;;;;;;24.30;45.30;94934.16;4211471;28;20048;-58
2022/07/23 00:35:37;;;;;;;8.00;6.00;;;;;;;24.43;44.68;94932.25;4216852;28;20052;-57
2022/07/23 00:37:39;;;;;;;11.30;6.43;;;;;;;24.52;44.54;94931.69;4216434;28;20180;-56
2022/07/23 00:39:41;;;;;;;9.50;5.82;;;;;;;24.60;43.99;94935.81;4218676;28;20052;-55
2022/07/23 00:41:42;;;;;;;10.90;6.25;;;;;;;24.70;43.50;94932.50;4217757;28;20148;-56
2022/07/23 00:43:44;;;;;;;10.15;5.78;;;;;;;24.78;43.26;94933.97;4211907;28;20482;-55
2022/07/23 00:45:46;;;;;;;11.00;6.78;;;;;;;24.85;43.24;94935.44;4212139;28;20394;-55
2022/07/23 00:47:48;;;;;;;8.75;6.40;;;;;;;24.92;43.63;94929.94;4210913;28;20611;-57
2022/07/23 00:49:49;;;;;;;12.38;6.63;;;;;;;24.95;43.59;94921.38;4211553;28;20052;-56
2022/07/23 00:51:52;;;;;;;12.23;6.20;;;;;;;25.00;43.57;94926.03;4220892;28;20055;-57
2022/07/23 00:53:53;;;;;;;9.30;6.15;;;;;;;24.96;43.96;94932.94;4212093;28;20428;-54
2022/07/23 00:55:55;;;;;;;10.30;5.82;;;;;;;24.94;43.95;94931.31;4227539;28;20571;-57
2022/07/23 00:57:57;;;;;;;12.90;6.47;;;;;;;24.93;44.22;94936.94;4225816;28;20569;-56
2022/07/23 00:59:59;;;;;;;9.02;5.82;;;;;;;24.95;43.92;94940.16;4227932;28;20071;-57
2022/07/23 01:02:01;;;;;;;13.43;6.05;;;;;;;24.91;44.22;94933.69;4216615;28;20044;-57
2022/07/23 01:04:02;;;;;;;12.38;6.65;;;;;;;24.86;44.40;94937.06;4224058;28;20056;-55
2022/07/23 01:06:04;;;;;;;10.00;6.72;;;;;;;24.89;44.41;94930.44;4212328;28;20097;-54
2022/07/23 01:08:07;;;;;;;12.95;6.53;;;;;;;24.88;44.29;94932.28;4221110;28;20131;-55
2022/07/23 01:10:30;;;;;;;7.97;6.32;;;;;;;24.88;44.33;94929.59;4209821;28;20101;-57
2022/07/23 01:12:30;;;;;;;12.15;6.57;;;;;;;24.89;44.24;94928.56;4210126;28;20091;-57
2022/07/23 01:14:32;;;;;;;11.57;6.70;;;;;;;24.90;44.31;94932.03;4209785;28;20056;-57
2022/07/23 01:16:34;;;;;;;9.00;6.80;;;;;;;24.90;44.36;94932.03;4209968;28;20056;-56
2022/07/23 01:18:35;;;;;;;16.05;6.80;;;;;;;24.89;44.19;94927.75;4214501;28;20068;-56
2022/07/23 01:20:37;;;;;;;8.68;6.53;;;;;;;24.89;44.37;94925.06;4217111;28;20109;-56
2022/07/23 01:22:39;;;;;;;9.82;6.68;;;;;;;24.88;44.41;94924.22;4220132;28;20311;-56
2022/07/23 01:24:41;;;;;;;9.60;6.28;;;;;;;24.89;44.44;94928.56;4213728;27;20047;-56
2022/07/23 01:26:44;;;;;;;11.60;6.80;;;;;;;24.85;44.46;94923.94;4218816;28;20048;-57
2022/07/23 01:28:46;;;;;;;12.63;6.70;;;;;;;24.82;44.59;94925.19;4220886;28;20043;-55
2022/07/23 01:30:48;;;;;;;15.13;7.47;;;;;;;24.78;44.52;94929.44;4217124;28;20040;-57
2022/07/23 01:32:50;;;;;;;11.07;6.95;;;;;;;24.59;44.29;94926.16;4215188;28;20043;-57
2022/07/23 01:34:52;;;;;;;8.43;6.43;;;;;;;24.45;45.08;94925.59;4227293;28;20059;-54
2022/07/23 01:36:53;;;;;;;15.40;7.40;;;;;;;24.35;45.08;94914.72;4224989;28;20108;-55
2022/07/23 01:38:55;;;;;;;11.50;7.20;;;;;;;24.33;45.16;94916.84;4226663;28;20051;-55
2022/07/23 01:40:57;;;;;;;10.98;6.68;;;;;;;24.33;45.01;94914.97;4227140;28;20432;-55
2022/07/23 01:42:58;;;;;;;11.93;6.97;;;;;;;24.37;45.19;94917.16;4223206;28;20051;-57
2022/07/23 01:45:01;;;;;;;13.00;6.15;;;;;;;24.38;44.97;94918.78;4210733;28;20048;-56
2022/07/23 01:47:03;;;;;;;11.00;6.53;;;;;;;24.34;44.47;94921.13;4209522;28;20058;-56
2022/07/23 01:49:05;;;;;;;8.82;6.57;;;;;;;24.18;44.95;94916.53;4222439;28;20101;-56
2022/07/23 01:51:07;;;;;;;10.57;6.60;;;;;;;24.07;44.93;94921.69;4225478;28;20523;-57
2022/07/23 01:53:09;;;;;;;9.07;6.25;;;;;;;24.07;44.76;94923.53;4222503;28;20054;-57
2022/07/23 01:55:11;;;;;;;8.73;6.20;;;;;;;24.09;45.05;94926.78;4214862;28;20048;-55
2022/07/23 01:57:19;;;;;;;13.05;6.28;;;;;;;24.15;45.05;94919.69;4227317;28;20122;-59
2022/07/23 01:59:22;;;;;;;6.65;4.78;;;;;;;24.17;44.86;94921.06;4214409;28;20466;-56
2022/07/23 02:01:24;;;;;;;12.65;5.97;;;;;;;24.15;44.63;94922.38;4224473;28;20047;-57
2022/07/23 02:03:26;;;;;;;9.27;5.50;;;;;;;24.15;44.44;94917.81;4226368;28;20047;-58
2022/07/23 02:05:28;;;;;;;11.75;6.30;;;;;;;24.15;44.71;94917.81;4226845;28;20128;-56
2022/07/23 02:07:30;;;;;;;9.13;6.00;;;;;;;24.14;44.66;94926.91;4224112;28;20120;-55
2022/07/23 02:09:35;;;;;;;11.25;6.13;;;;;;;24.05;45.19;94915.78;4225873;28;20097;-58
2022/07/23 02:11:37;;;;;;;14.38;5.65;;;;;;;23.98;44.49;94919.63;4225497;28;20089;-56
2022/07/23 02:13:38;;;;;;;9.18;5.60;;;;;;;23.84;44.65;94921.75;4213239;28;20043;-57
2022/07/23 02:15:40;;;;;;;9.95;5.15;;;;;;;23.63;45.09;94918.63;4220289;28;20059;-56
2022/07/23 02:17:42;;;;;;;11.27;5.65;;;;;;;23.57;45.39;94919.56;4209397;28;20052;-57
2022/07/23 02:19:43;;;;;;;8.80;6.13;;;;;;;23.54;45.73;94920.03;4210142;28;20476;-57
2022/07/23 02:21:45;;;;;;;12.65;5.65;;;;;;;23.56;45.66;94922.50;4214192;28;20051;-57
2022/07/23 02:23:47;;;;;;;19.25;6.68;;;;;;;23.56;45.36;94917.13;4225248;28;20436;-56
2022/07/23 02:25:49;;;;;;;12.13;6.30;;;;;;;23.51;45.02;94920.50;4225379;28;20048;-55
2022/07/23 02:27:51;;;;;;;8.32;6.10;;;;;;;23.41;45.31;94917.63;4226067;28;20039;-56
2022/07/23 02:29:52;;;;;;;11.57;5.75;;;;;;;23.29;45.65;94921.09;4220586;28;20052;-55
2022/07/23 02:31:54;;;;;;;11.10;5.88;;;;;;;23.25;45.56;94917.28;4208968;28;20143;-55
2022/07/23 02:33:56;;;;;;;8.38;5.97;;;;;;;23.29;45.78;94925.63;4221065;28;20098;-56
2022/07/23 02:35:58;;;;;;;11.75;6.00;;;;;;;23.30;45.41;94919.25;4211706;28;20117;-55
2022/07/23 02:38:00;;;;;;;9.80;6.45;;;;;;;23.34;45.40;94919.56;4207486;28;20364;-58
2022/07/23 02:40:01;;;;;;;12.30;5.80;;;;;;;23.34;45.22;94925.75;4214347;28;20454;-57
2022/07/23 02:42:03;;;;;;;14.32;6.00;;;;;;;23.23;44.60;94922.03;4210463;28;20052;-57
2022/07/23 02:44:05;;;;;;;11.13;5.40;;;;;;;23.17;44.72;94924.84;4222133;28;20047;-56
2022/07/23 02:46:07;;;;;;;13.68;5.53;;;;;;;23.13;44.87;94932.50;4219463;28;20048;-56
2022/07/23 02:48:12;;;;;;;11.77;6.05;;;;;;;23.00;44.87;94922.84;4214777;28;20047;-57
2022/07/23 02:50:14;;;;;;;11.73;6.57;;;;;;;22.68;45.66;94935.63;4216393;28;20603;-56
2022/07/23 02:52:15;;;;;;;9.60;6.10;;;;;;;22.52;45.62;94928.28;4219082;28;20127;-59
2022/07/23 02:54:17;;;;;;;11.55;6.40;;;;;;;22.52;45.92;94934.44;4225677;28;20051;-56
2022/07/23 02:56:19;;;;;;;9.70;5.60;;;;;;;22.63;45.57;94935.53;4226340;28;20527;-55
2022/07/23 02:58:21;;;;;;;12.15;5.95;;;;;;;22.77;45.17;94936.13;4218484;28;20063;-55
2022/07/23 03:00:23;;;;;;;7.50;5.32;;;;;;;22.65;44.82;94936.91;4222226;28;20187;-56
2022/07/23 03:02:24;;;;;;;13.50;6.05;;;;;;;22.58;45.13;94944.19;4213094;28;20078;-55
2022/07/23 03:04:26;;;;;;;13.40;6.10;;;;;;;22.59;44.85;94945.03;4221025;28;20106;-55
2022/07/23 03:06:28;;;;;;;10.38;6.30;;;;;;;22.53;44.58;94940.59;4222455;28;20080;-56
2022/07/23 03:08:30;;;;;;;11.15;5.85;;;;;;;22.49;44.65;94946.38;4214125;28;20052;-56
2022/07/23 03:10:31;;;;;;;8.05;5.60;;;;;;;22.52;44.97;94952.31;4217276;28;20052;-57
2022/07/23 03:12:33;;;;;;;9.05;5.75;;;;;;;22.44;44.47;94954.25;4208522;28;20101;-56
2022/07/23 03:14:35;;;;;;;12.30;5.45;;;;;;;22.43;44.43;94951.81;4209179;28;20048;-56
2022/07/23 03:16:37;;;;;;;11.88;5.63;;;;;;;22.36;44.35;94957.25;4222477;28;20128;-57
2022/07/23 03:18:39;;;;;;;7.03;5.18;;;;;;;22.41;44.14;94954.72;4213897;28;20242;-57
2022/07/23 03:20:41;;;;;;;13.27;5.53;;;;;;;22.55;43.93;94962.53;4226204;28;20067;-55
2022/07/23 03:22:43;;;;;;;8.13;5.60;;;;;;;22.67;44.13;94958.88;4218671;28;20176;-55
2022/07/23 03:24:54;;;;;;;9.23;5.65;;;;;;;22.79;43.69;94966.91;4214087;28;20055;-56
2022/07/23 03:26:55;;;;;;;9.95;5.35;;;;;;;22.90;43.84;94963.44;4225623;28;20494;-54
2022/07/23 03:28:57;;;;;;;11.93;6.05;;;;;;;22.99;43.71;94960.44;4225236;28;20055;-56
2022/07/23 03:30:59;;;;;;;12.43;5.57;;;;;;;23.08;43.49;94967.09;4223935;28;20061;-56
2022/07/23 03:33:01;;;;;;;11.82;5.80;;;;;;;23.15;43.50;94964.34;4208418;28;20361;-56
2022/07/23 03:35:04;;;;;;;11.75;6.32;;;;;;;23.19;44.30;94963.63;4214947;28;20052;-56
2022/07/23 03:37:07;;;;;;;10.05;5.95;;;;;;;23.14;44.96;94966.16;4227404;28;20389;-56
2022/07/23 03:39:09;;;;;;;9.93;6.68;;;;;;;22.93;46.24;94972.88;4216527;28;20639;-56
2022/07/23 03:41:14;;;;;;;7.78;6.03;;;;;;;22.83;47.28;94972.59;4227750;28;20055;-55
2022/07/23 03:43:16;;;;;;;9.80;6.88;;;;;;;22.32;48.59;94969.41;4218777;28;20109;-57
2022/07/23 03:45:18;;;;;;;10.63;7.32;;;;;;;21.82;50.00;94978.38;4212663;28;20212;-58
2022/07/23 03:47:21;;;;;;;9.63;7.47;;;;;;;21.30;51.56;94977.06;4225161;28;20163;-55
2022/07/23 03:49:23;;;;;;;;;;;;;;;21.08;52.21;94977.44;4213888;28;20106;-56
2022/07/23 03:51:25;;;;;;;13.45;7.55;;;;;;;21.08;52.64;94977.44;4223492;28;19971;-56
2022/07/23 03:53:26;;;;;;;12.20;7.03;;;;;;;21.24;52.04;94971.56;4218076;28;20500;-56
2022/07/23 03:55:28;;;;;;;16.40;6.97;;;;;;;21.53;51.35;94976.44;4212418;28;20048;-57
2022/07/23 03:57:30;;;;;;;12.20;7.78;;;;;;;21.78;50.59;94982.53;4211464;28;20113;-56
2022/07/23 03:59:32;;;;;;;14.02;8.10;;;;;;;22.03;49.93;94971.00;4225481;28;20067;-56
2022/07/23 04:01:33;;;;;;;13.43;7.57;;;;;;;22.22;49.35;94977.09;4216784;28;20422;-53
2022/07/23 04:03:35;;;;;;;12.77;7.03;;;;;;;22.35;49.05;94978.81;4228072;28;20053;-52
2022/07/23 04:05:37;;;;;;;11.38;6.95;;;;;;;22.51;49.02;94972.84;4228810;28;20109;-53
2022/07/23 04:07:40;;;;;;;12.73;6.85;;;;;;;22.68;48.15;94971.16;4214330;28;20451;-51
2022/07/23 04:09:41;;;;;;;10.35;6.75;;;;;;;22.79;47.91;94966.91;4211086;28;20436;-51
2022/07/23 04:11:47;;;;;;;15.85;7.30;;;;;;;22.89;47.47;94969.03;4216721;28;20043;-53
2022/07/23 04:13:48;;;;;;;10.50;6.82;;;;;;;23.01;47.38;94969.06;4220313;27;20179;-53
2022/07/23 04:15:50;;;;;;;11.00;6.47;;;;;;;23.12;47.13;94968.25;4222264;28;20059;-52
2022/07/23 04:17:52;;;;;;;12.50;6.75;;;;;;;23.25;46.51;94969.91;4214338;28;20054;-52
2022/07/23 04:19:54;;;;;;;15.68;7.18;;;;;;;23.25;46.56;94970.72;4223210;28;20459;-51
2022/07/23 04:21:56;;;;;;;17.80;7.55;;;;;;;23.20;46.17;94975.94;4209262;28;20363;-52
2022/07/23 04:23:58;;;;;;;11.95;7.53;;;;;;;23.06;47.01;94982.56;4218682;28;20051;-52
2022/07/23 04:26:00;;;;;;;14.20;7.63;;;;;;;22.74;47.54;94985.47;4210210;28;20054;-52
2022/07/23 04:28:02;;;;;;;12.60;7.07;;;;;;;22.58;47.65;94986.09;4211530;28;20528;-53
2022/07/23 04:30:04;;;;;;;15.85;6.57;;;;;;;22.11;48.74;94981.31;4219203;28;20465;-58
2022/07/23 04:32:06;;;;;;;8.82;6.28;;;;;;;22.19;48.39;94982.88;4217121;28;20054;-51
2022/07/23 04:34:08;;;;;;;13.63;7.68;;;;;;;22.25;48.73;94984.69;4224529;28;20123;-55
2022/07/23 04:36:09;;;;;;;13.15;6.75;;;;;;;22.44;48.03;94986.28;4211149;28;20059;-51
2022/07/23 04:38:11;;;;;;;10.45;6.70;;;;;;;22.64;47.80;94990.53;4210002;28;20044;-51
2022/07/23 04:40:13;;;;;;;9.48;6.53;;;;;;;22.79;47.56;94988.25;4217980;28;20521;-51
2022/07/23 04:42:15;;;;;;;10.82;6.47;;;;;;;22.97;46.96;94983.88;4226916;28;20077;-53
2022/07/23 04:44:16;;;;;;;10.85;6.88;;;;;;;23.15;46.63;94991.88;4212851;28;20052;-53
2022/07/23 04:46:18;;;;;;;8.88;6.03;;;;;;;23.26;46.15;94983.03;4213049;28;20426;-51
2022/07/23 04:48:20;;;;;;;11.10;6.93;;;;;;;23.43;45.92;94987.72;4222761;28;20074;-50
2022/07/23 04:50:22;;;;;;;8.88;6.25;;;;;;;23.55;45.45;94983.16;4210744;28;20402;-53
2022/07/23 04:52:24;;;;;;;8.40;6.50;;;;;;;23.55;45.47;94991.19;4218933;28;20036;-50
2022/07/23 04:54:26;;;;;;;11.63;6.18;;;;;;;23.61;45.77;94992.91;4215101;28;20052;-51
2022/07/23 04:56:27;;;;;;;13.90;6.72;;;;;;;23.67;45.72;94997.34;4221263;28;20065;-52
2022/07/23 04:58:29;;;;;;;9.93;6.32;;;;;;;23.75;45.36;94995.34;4225003;28;20308;-52
2022/07/23 05:00:31;;;;;;;12.57;6.85;;;;;;;23.89;44.85;94992.22;4210685;28;20450;-53
2022/07/23 05:02:33;;;;;;;11.07;6.57;;;;;;;24.00;45.04;94990.56;4219059;28;20044;-53
2022/07/23 05:04:34;;;;;;;10.38;7.18;;;;;;;24.09;44.75;94999.88;4227076;28;20051;-53
2022/07/23 05:06:36;;;;;;;11.38;7.25;;;;;;;24.09;44.40;94991.84;4210981;28;20135;-52
2022/07/23 05:08:38;;;;;;;14.70;7.00;;;;;;;24.12;44.67;94996.72;4223560;28;20040;-53
2022/07/23 05:10:40;;;;;;;12.27;6.90;;;;;;;24.22;44.62;94990.78;4223500;28;20097;-53
2022/07/23 05:12:41;;;;;;;9.70;6.75;;;;;;;24.33;44.13;94991.78;4227487;28;20044;-53
2022/07/23 05:14:43;;;;;;;11.70;7.05;;;;;;;24.36;44.14;94996.66;4216127;28;20048;-53
2022/07/23 05:16:45;;;;;;;14.88;7.28;;;;;;;24.41;44.03;94999.44;4226855;27;20047;-55
2022/07/23 05:18:46;;;;;;;14.48;7.90;;;;;;;24.49;43.67;94999.09;4212524;28;20105;-51
2022/07/23 05:20:48;;;;;;;13.25;7.32;;;;;;;24.57;43.67;94992.56;4215744;28;20051;-52
2022/07/23 05:22:50;;;;;;;11.05;7.93;;;;;;;24.61;43.64;95004.41;4223815;28;20085;-52
2022/07/23 05:24:51;;;;;;;13.02;7.63;;;;;;;24.70;43.38;95007.53;4219748;28;20926;-51
2022/07/23 05:26:53;;;;;;;10.13;7.18;;;;;;;24.76;43.15;95006.56;4210592;28;20101;-55
2022/07/23 05:28:55;;;;;;;11.35;7.35;;;;;;;24.86;43.14;94996.00;4222059;28;20055;-53
2022/07/23 05:30:57;;;;;;;19.38;7.30;;;;;;;24.98;43.07;95001.31;4211570;28;20054;-50
2022/07/23 05:32:58;;;;;;;12.98;7.53;;;;;;;25.02;43.37;94999.78;4210442;28;20062;-55
2022/07/23 05:35:00;;;;;;;13.27;7.60;;;;;;;25.10;43.18;95002.06;4215785;28;20043;-53
2022/07/23 05:37:02;;;;;;;14.48;7.13;;;;;;;25.18;43.09;95000.84;4217211;28;20063;-50
2022/07/23 05:39:04;;;;;;;15.05;7.32;;;;;;;25.26;42.88;95003.16;4221761;28;20569;-52
2022/07/23 05:41:06;;;;;;;13.88;7.18;;;;;;;25.34;42.77;95008.13;4216942;28;20415;-51
2022/07/23 05:43:08;;;;;;;12.70;7.35;;;;;;;25.43;42.39;95002.34;4219476;28;20136;-53
2022/07/23 05:45:10;;;;;;;12.65;7.93;;;;;;;25.48;41.75;95000.53;4220070;28;20404;-52
2022/07/23 05:47:12;;;;;;;8.65;6.45;;;;;;;25.50;41.59;95008.34;4214197;28;20124;-49
2022/07/23 05:49:14;;;;;;;9.32;6.97;;;;;;;25.56;41.54;94999.31;4210562;28;20437;-55
2022/07/23 05:51:22;;;;;;;12.38;7.30;;;;;;;25.64;41.26;95006.13;4225934;28;20063;-56
2022/07/23 05:53:24;;;;;;;13.57;7.15;;;;;;;25.73;40.69;95002.00;4217744;28;20047;-56
2022/07/23 05:55:28;;;;;;;14.30;8.02;;;;;;;25.76;40.58;95004.16;4220887;28;20558;-57
2022/07/23 05:57:30;;;;;;;9.27;6.85;;;;;;;25.79;40.43;95000.19;4226202;28;20050;-57
2022/07/23 05:59:32;;;;;;;12.95;6.78;;;;;;;25.84;40.25;95000.25;4226037;28;20449;-57
2022/07/23 06:01:33;;;;;;;11.60;7.25;;;;;;;25.91;40.18;95000.91;4226094;28;20043;-56
2022/07/23 06:03:35;;;;;;;8.85;6.65;;;;;;;26.00;40.13;94999.44;4219452;28;20083;-55
2022/07/23 06:05:37;;;;;;;15.10;7.15;;;;;;;26.05;40.61;95002.19;4209606;28;20468;-54
2022/07/23 06:07:39;;;;;;;17.38;7.60;;;;;;;26.10;40.83;94996.88;4208588;28;20109;-55
2022/07/23 06:09:40;;;;;;;13.60;7.78;;;;;;;26.10;41.37;94996.88;4224021;28;20062;-55
2022/07/23 06:11:42;;;;;;;9.60;7.03;;;;;;;26.12;41.67;94988.59;4213474;28;20059;-55
2022/07/23 06:13:44;;;;;;;13.48;7.05;;;;;;;26.14;41.60;94989.94;4226295;28;20426;-55
2022/07/23 06:15:46;;;;;;;14.48;7.85;;;;;;;26.19;41.72;94988.41;4216677;28;20237;-57
2022/07/23 06:17:48;;;;;;;11.23;7.40;;;;;;;26.30;41.48;94987.44;4208700;28;20043;-56
2022/07/23 06:19:49;;;;;;;11.63;7.18;;;;;;;26.40;41.41;94987.56;4220889;28;20056;-57
2022/07/23 06:21:53;;;;;;;11.52;7.70;;;;;;;26.43;41.25;94988.94;4214955;28;20059;-57
2022/07/23 06:23:54;;;;;;;13.75;7.30;;;;;;;26.25;41.00;94995.47;4213966;28;20071;-57
2022/07/23 06:25:56;;;;;;;10.02;7.32;;;;;;;25.73;41.63;94994.75;4208931;28;20518;-57
2022/07/23 06:27:58;;;;;;;10.07;6.78;;;;;;;25.55;42.17;94986.97;4208555;28;20551;-54
2022/07/23 06:29:59;;;;;;;12.50;7.20;;;;;;;25.44;41.66;94994.03;4213144;28;20104;-55
2022/07/23 06:32:01;;;;;;;10.50;7.35;;;;;;;25.60;41.84;94987.06;4216152;28;20048;-57
2022/07/23 06:34:03;;;;;;;18.98;7.10;;;;;;;25.67;41.86;94994.94;4212533;28;20543;-56
2022/07/23 06:36:05;;;;;;;12.80;7.40;;;;;;;25.84;41.66;94992.22;4220741;28;20051;-56
2022/07/23 06:38:07;;;;;;;17.73;7.90;;;;;;;25.80;41.72;94993.78;4209527;28;20056;-58
2022/07/23 06:40:09;;;;;;;15.35;6.82;;;;;;;25.72;41.39;94993.09;4212111;28;20044;-57
2022/07/23 06:42:12;;;;;;;11.18;6.82;;;;;;;25.61;41.54;94991.34;4222852;28;20047;-58
2022/07/23 06:44:13;;;;;;;15.63;7.70;;;;;;;25.67;41.33;94995.72;4211353;28;20497;-54
2022/07/23 06:46:15;;;;;;;14.05;7.15;;;;;;;25.83;41.02;94993.25;4225325;28;20051;-54
2022/07/23 06:48:17;;;;;;;14.07;7.63;;;;;;;26.04;40.88;94991.69;4225905;28;20482;-56
2022/07/23 06:50:18;;;;;;;14.13;7.07;;;;;;;26.28;40.50;94982.31;4225679;28;20412;-56
2022/07/23 06:52:20;;;;;;;12.80;7.47;;;;;;;26.41;40.47;94986.50;4218474;28;20196;-56
2022/07/23 06:54:22;;;;;;;14.43;7.40;;;;;;;26.52;40.31;94985.56;4225255;28;20047;-56
2022/07/23 06:56:24;;;;;;;9.93;7.18;;;;;;;26.70;39.91;94978.25;4225625;28;20047;-54
2022/07/23 06:58:26;;;;;;;12.43;6.72;;;;;;;26.88;39.50;94980.56;4226020;28;20417;-57
2022/07/23 07:00:27;;;;;;;10.60;7.28;;;;;;;27.00;39.08;94980.44;4216372;28;20117;-59
2022/07/23 07:02:29;;;;;;;14.23;7.13;;;;;;;26.96;38.73;94977.44;4221480;28;20051;-55
2022/07/23 07:04:31;;;;;;;16.05;7.68;;;;;;;26.69;39.94;94980.13;4211112;28;20180;-57
2022/07/23 07:06:33;;;;;;;9.90;6.82;;;;;;;26.53;39.81;94976.44;4220515;28;20078;-56
2022/07/23 07:08:35;;;;;;;11.20;7.57;;;;;;;26.64;39.54;94976.59;4209207;28;20492;-55
2022/07/23 07:10:37;;;;;;;15.15;7.53;;;;;;;26.82;39.60;94980.78;4208121;28;20082;-57
2022/07/23 07:12:38;;;;;;;13.25;7.70;;;;;;;26.79;39.74;94974.03;4209105;28;20501;-57
2022/07/23 07:14:40;;;;;;;12.57;7.68;;;;;;;26.73;39.17;94975.06;4223462;28;20116;-55
2022/07/23 07:16:42;;;;;;;9.68;6.45;;;;;;;26.69;39.42;94969.38;4222150;28;20129;-56
2022/07/23 07:18:43;;;;;;;7.97;6.50;;;;;;;26.75;38.92;94972.94;4213214;28;20132;-54
2022/07/23 07:20:45;;;;;;;14.07;7.18;;;;;;;26.92;38.75;94964.75;4221111;28;20062;-55
2022/07/23 07:22:47;;;;;;;15.85;7.05;;;;;;;26.88;38.42;94967.13;4222593;28;20063;-55
2022/07/23 07:24:48;;;;;;;11.75;6.82;;;;;;;26.95;38.60;94966.94;4225154;28;20108;-56
2022/07/23 07:26:50;;;;;;;12.32;6.85;;;;;;;27.09;38.67;94964.63;4225612;28;20471;-56
2022/07/23 07:28:52;;;;;;;15.25;7.70;;;;;;;27.19;38.87;94964.72;4213846;28;20048;-55
2022/07/23 07:30:54;;;;;;;10.20;7.20;;;;;;;27.19;38.02;94962.03;4208401;28;20066;-56
2022/07/23 07:32:55;;;;;;;11.90;6.80;;;;;;;27.18;38.41;94955.03;4225596;28;20524;-56
2022/07/23 07:34:58;;;;;;;12.00;6.93;;;;;;;27.24;38.37;94964.00;4224773;28;20044;-56
2022/07/23 07:37:00;;;;;;;13.77;7.07;;;;;;;27.45;38.21;94956.84;4224339;28;20501;-52
2022/07/23 07:39:06;;;;;;;14.15;8.07;;;;;;;27.72;37.72;94957.56;4213915;28;20428;-56
2022/07/23 07:41:09;;;;;;;11.45;7.22;;;;;;;27.83;37.32;94960.31;4212830;28;20147;-55
2022/07/23 07:43:11;;;;;;;14.93;7.78;;;;;;;27.97;37.38;94954.25;4223641;28;20055;-55
2022/07/23 07:45:13;;;;;;;10.98;7.07;;;;;;;28.14;37.27;94951.34;4219708;28;20273;-55
2022/07/23 07:47:15;;;;;;;10.70;6.93;;;;;;;28.36;36.75;94958.44;4224652;28;20589;-56
2022/07/23 07:49:19;;;;;;;14.20;6.78;;;;;;;28.55;36.31;94956.91;4208723;28;20325;-56
2022/07/23 07:51:22;;;;;;;13.98;7.15;;;;;;;28.67;35.73;94950.47;4213399;28;20046;-56
2022/07/23 07:53:26;;;;;;;;;;;;;;;28.68;35.56;94955.59;4216471;28;20099;-56
2022/07/23 07:55:46;;;;;;;12.25;6.78;;;;;;;28.76;35.30;94946.16;4208335;28;19928;-55
2022/07/23 07:57:52;;;;;;;13.23;6.70;;;;;;;28.77;35.46;94945.09;4208951;28;20059;-55
2022/07/23 07:59:54;;;;;;;14.82;7.32;;;;;;;28.84;35.48;94950.22;4220364;28;20040;-55
2022/07/23 08:01:57;;;;;;;10.27;7.35;;;;;;;28.96;35.00;94950.78;4208041;28;20212;-57
2022/07/23 08:03:59;;;;;;;15.65;7.57;;;;;;;29.02;35.01;94949.72;4219321;28;20077;-56
2022/07/23 08:06:01;;;;;;;8.18;6.57;;;;;;;29.15;35.17;94949.19;4225489;28;20503;-54
2022/07/23 08:08:03;;;;;;;11.70;6.80;;;;;;;29.27;35.03;94946.22;4206831;28;20044;-56
2022/07/23 08:10:08;;;;;;;11.25;7.20;;;;;;;29.40;34.80;94950.25;4207855;28;20060;-53
2022/07/23 08:12:10;;;;;;;13.80;9.05;;;;;;;29.42;34.88;94950.00;4216827;28;20150;-57
2022/07/23 08:14:11;;;;;;;12.02;6.90;;;;;;;29.40;34.63;94948.38;4225453;28;20051;-56
2022/07/23 08:16:13;;;;;;;9.63;7.15;;;;;;;29.30;34.29;94943.00;4211320;28;20064;-60
2022/07/23 08:18:15;;;;;;;9.02;6.18;;;;;;;29.19;34.49;94944.88;4208970;28;20423;-55
2022/07/23 08:20:19;;;;;;;13.73;7.40;;;;;;;29.26;34.10;94941.91;4220715;28;20048;-55
2022/07/23 08:22:21;;;;;;;11.35;6.47;;;;;;;29.45;33.91;94939.47;4208488;28;20048;-55
2022/07/23 08:24:23;;;;;;;12.60;6.70;;;;;;;29.65;34.12;94927.81;4217280;28;20072;-56
2022/07/23 08:26:24;;;;;;;12.68;6.78;;;;;;;29.86;33.97;94936.72;4213846;28;20108;-55
2022/07/23 08:28:26;;;;;;;13.15;7.18;;;;;;;30.06;33.80;94940.44;4213594;28;20490;-57
2022/07/23 08:30:29;;;;;;;12.73;6.80;;;;;;;30.24;33.54;94934.38;4222398;28;20127;-56
2022/07/23 08:32:31;;;;;;;11.70;6.28;;;;;;;30.39;33.25;94928.13;4225991;28;20073;-56
2022/07/23 08:34:45;;;;;;;15.45;7.07;;;;;;;30.47;32.83;94927.56;4211137;28;20043;-55
2022/07/23 08:36:47;;;;;;;18.50;7.85;;;;;;;30.26;32.42;94934.94;4216637;28;20052;-56
2022/07/23 08:38:49;;;;;;;12.63;7.65;;;;;;;30.30;32.68;94936.00;4227582;28;20051;-57
2022/07/23 08:40:53;;;;;;;11.52;7.05;;;;;;;30.36;31.88;94931.41;4216055;28;20082;-55
2022/07/23 08:42:55;;;;;;;13.02;6.30;;;;;;;30.19;32.54;94931.72;4212729;28;20130;-56
2022/07/23 08:44:57;;;;;;;11.25;6.45;;;;;;;30.36;32.36;94931.41;4219911;28;20043;-57
2022/07/23 08:46:59;;;;;;;11.88;6.65;;;;;;;30.50;31.56;94928.88;4215510;28;20059;-55
2022/07/23 08:49:01;;;;;;;15.70;7.30;;;;;;;30.50;31.91;94924.31;4223582;28;20112;-55
2022/07/23 08:51:04;;;;;;;16.83;7.25;;;;;;;30.62;31.27;94930.16;4225694;28;20720;-57
2022/07/23 08:53:08;;;;;;;13.13;7.50;;;;;;;30.80;31.17;94922.47;4220682;28;20093;-57
2022/07/23 08:55:10;;;;;;;12.07;7.07;;;;;;;30.98;31.30;94919.16;4219654;28;20044;-58
2022/07/23 08:57:12;;;;;;;16.58;7.25;;;;;;;31.16;31.00;94919.53;4216795;28;20284;-58
2022/07/23 08:59:13;;;;;;;15.35;7.25;;;;;;;31.30;31.17;94919.69;4211285;28;20128;-57
2022/07/23 09:01:15;;;;;;;17.63;7.70;;;;;;;31.30;31.06;94917.81;4224243;28;20140;-58
2022/07/23 09:03:19;;;;;;;12.60;7.55;;;;;;;31.25;30.84;94919.72;4225926;28;20495;-56
2022/07/23 09:05:21;;;;;;;13.68;7.32;;;;;;;31.25;31.25;94911.63;4220241;27;20390;-58
2022/07/23 09:07:22;;;;;;;13.80;7.40;;;;;;;31.22;31.11;94913.00;4209147;28;20484;-55
2022/07/23 09:09:29;;;;;;;18.92;7.38;;;;;;;31.37;30.96;94912.06;4211360;28;20530;-57
2022/07/23 09:11:31;;;;;;;11.25;7.28;;;;;;;31.52;31.17;94911.13;4210393;28;20047;-58
2022/07/23 09:13:39;;;;;;;14.60;6.97;;;;;;;31.67;31.22;94913.69;4211039;28;20048;-56
2022/07/23 09:15:52;;;;;;;11.13;6.60;;;;;;;31.82;31.02;94915.41;4210163;28;20125;-57
2022/07/23 09:17:55;;;;;;;12.57;6.72;;;;;;;31.95;30.39;94912.00;4224340;28;20410;-57
2022/07/23 09:20:07;;;;;;;12.60;7.03;;;;;;;32.09;30.13;94914.03;4225639;28;20067;-55
2022/07/23 09:22:21;;;;;;;10.77;6.83;;;;;;;32.14;30.23;94917.50;4218969;28;20075;-55
2022/07/23 09:24:28;;;;;;;11.02;6.53;;;;;;;32.25;29.89;94912.75;4226357;28;20292;-57
2022/07/23 09:26:42;;;;;;;10.38;6.50;;;;;;;32.30;30.19;94907.25;4221601;27;20055;-57
2022/07/23 09:29:03;;;;;;;;;;;;;;;32.40;30.22;94909.84;4221134;28;20086;-56
2022/07/23 09:31:05;;;;;;;15.18;7.50;;;;;;;32.29;29.46;94910.25;4212149;28;19924;-55
2022/07/23 09:33:10;;;;;;;12.57;6.35;;;;;;;32.33;29.65;94906.69;4226609;28;20046;-55